Tuktoyaktuk, Canada
Current Conditions -  °F | °C
As of 6:00 PM on Monday 24 Nov 2014 (Local Time) from CYUB Reporting Station
Few Clouds Few Clouds  
Wind Chill: -33°   Ceiling: Unl
Heat Index: -15°   Visibility: 15mi
Dew Point: -22°   Wind: 9mph
Humidity: 70%   Direction: 120°ESE
Pressure: 29.99"   Gusts: NA
Location:  69.45°N, 133.03°W
Report Text: CYUB 250100Z 12008KT 15SM FEW050 FEW220 M26/M30 A2999 RMKSC1CI0 SLP157
Loading
Personal Weather Stations






























Interactive Weather Map New forecast layout! Learn more

10-Day Weather Forecast

Advertisements
Track Severe Weather on mobile